PANCPAUN

Guest
Details From PANC - Ted Stevens Anchorage Intl
To PAUN - Unalakleet
Flight Number -
Tags Generated
Created
Modified
Stats Distance 340 nm / 630 km
Max Altitude 0 ft / 0 m
Waypoints 3
Social Downloads 3
Likes 0
Share VATSIM

Download

Looking for another format? Having issues loading an existing format? Contact us
Advertisement - Login to hide

Notes

Generated

Route

PANC AGSIH PAUN

ID Type Via Altitude Latitude Longitude Leg Dist Tot Dist Heading (true) Name
O PANC APT - 0 ft / 0 m 61.16976˚ -150.00833˚ - 0 nm - -
AGSIH FIX - 0 ft / 0 m 63.87461˚ -160.79094˚ 339 nm 339 nm 303° / 294° -
O PAUN APT - 0 ft / 0 m 63.88345˚ -160.79903˚ 0 nm 340 nm 338° / 338° -

Altitude Profile

Advertisement - Login to hide

Weather


0- 5 10 15 20 25 30 35+ Temperature / ° C

Clouds and Precipitation
Forecast for 2018-05-20 12:00 UTC. Updated an hour ago

Ground ~20,000 ft ~40,000 ft Winds

PANC

Details ICAO PANC (ANC)
Name Ted Stevens Anchorage Intl
Region USA (Alaska)
Timezone America/Anchorage (UTC-8.0)
Stats Elevation 152 ft / 46 m (AMSL)
Location 61.174111° -149.995982°
Runways 3
Magnetic Variation 16.075° E

METAR

PANC 201153Z 19003KT 10SM OVC070 07/04 A2970

Decode

TAF

PANC 201121Z 2012/2118 VRB05KT P6SM OVC070 FM210000 16012KT P6SM BKN060 OVC100 FM210700 04004KT P6SM BKN060 OVC100

Decode

Departure Runways

ID Width Length Bearing (true) Bearing (mag) Surface Threshold Offset Overrun Length
07L 151 ft / 46 m 10,563 ft / 3,220 m 89.88° 73.80° Asphalt 0 ft / 0 m 381 ft / 116 m
07R 151 ft / 46 m 10,862 ft / 3,311 m 89.85° 73.77° Asphalt 0 ft / 0 m 499 ft / 152 m
15 151 ft / 46 m 11,563 ft / 3,524 m 164.90° 148.82° Asphalt 200 ft / 61 m 220 ft / 67 m
25L 151 ft / 46 m 10,862 ft / 3,311 m 269.91° 253.83° Asphalt 0 ft / 0 m 151 ft / 46 m
25R 151 ft / 46 m 10,563 ft / 3,220 m 269.94° 253.86° Asphalt 0 ft / 0 m 381 ft / 116 m
33 151 ft / 46 m 11,563 ft / 3,524 m 344.91° 328.83° Asphalt 892 ft / 272 m 449 ft / 137 m

PAUN

Details ICAO PAUN (UNK)
Name Unalakleet
Region USA (Alaska)
Timezone America/Anchorage (UTC-8.0)
Stats Elevation 68 ft / 21 m (AMSL)
Location 63.886590° -160.796931°
Runways 2
Magnetic Variation 12.027° E

METAR

PAUN 201156Z AUTO 07010KT 10SM SCT049 OVC055 07/06 A2963 RMK AO2 RAE32 SLP037 P0001 60007 70007 T00720061 10094 20067 58003

Decode

TAF

TAF PAUN 201120Z 2012/2112 06011KT P6SM -SHRA OVC035 FM201800 10009KT P6SM VCSH FEW035 SCT050 BKN100 FM210300 36005KT P6SM -SHRA BKN045

Decode

Destination Runways

ID Width Length Bearing (true) Bearing (mag) Surface Threshold Offset Overrun Length
15 151 ft / 46 m 5,990 ft / 1,826 m 164.15° 152.12° Asphalt 0 ft / 0 m 499 ft / 152 m
26 79 ft / 24 m 1,993 ft / 608 m 278.43° 266.40° Asphalt 0 ft / 0 m 0 ft / 0 m
33 151 ft / 46 m 5,990 ft / 1,826 m 344.16° 332.13° Asphalt 0 ft / 0 m 0 ft / 0 m
8 79 ft / 24 m 1,993 ft / 608 m 98.42° 86.39° Asphalt 0 ft / 0 m 0 ft / 0 m

Popular Alternatives